FZAA/FIH METAR and TAF weather

Enter ICAO airport designator
Station Type Date Time Source
FZAA METAR 2019/05/19 20:30 UTC NOAA

FZAA 192030Z 00000KT 4000 BR FEW022 29/24 Q1013 BECMG 6000


Station Type Date Time Source
FZAA Decoded METAR 2019/05/19 20:30 UTC NOAA

Kinshasa / N'Djili, Congo, Democratic Republic of the (FZAA) 04-23S 015-26E 312M
May 19, 2019 - 04:30 PM EDT / 2019.05.19 2030 UTC
Wind: Calm:0
Visibility: 2 mile(s):0
Sky conditions: mostly clear
Weather: mist
Temperature: 84 F (29 C)
Dew Point: 75 F (24 C)
Relative Humidity: 74%
Pressure (altimeter): 29.91 in. Hg (1013 hPa)
ob: FZAA 192030Z 00000KT 4000 BR FEW022 29/24 Q1013 BECMG 6000
cycle: 20

Station Type Date Time Source
FZAA TAF 2019/05/19 18:54 UTC NOAA

TAF TAF FZAA 191700Z 1918/2024 24004KT 7000 NSC
BECMG 2004/2006 BKN018
BECMG 2010/2012 30008KT SCT024 FEW030CB PROB30
TEMPO 2015/2019 TS

Example: see airport list